KFSM/FSM METAR and TAF weather

Enter ICAO airport designator
Station Type Date Time Source
KFSM METAR 2019/04/22 23:53 UTC NOAA

KFSM 222353Z 22008KT 10SM CLR 26/12 A3000 RMK AO2 SLP156 T02560122 10278 20256 55001


Station Type Date Time Source
KFSM Decoded METAR 2019/04/22 23:53 UTC NOAA

FORT SMITH REGIONAL AIRPORT, AR, United States (KFSM) 35-20N 94-22W 140M
Apr 22, 2019 - 07:53 PM EDT / 2019.04.22 2353 UTC
Wind: from the SW (220 degrees) at 9 MPH (8 KT):0
Visibility: 10 mile(s):0
Sky conditions: clear
Temperature: 78.1 F (25.6 C)
Dew Point: 54.0 F (12.2 C)
Relative Humidity: 43%
Pressure (altimeter): 30 in. Hg (1015 hPa)
Pressure tendency: 0.00 inches (0.1 hPa) lower than three hours ago
ob: KFSM 222353Z 22008KT 10SM CLR 26/12 A3000 RMK AO2 SLP156 T02560122 10278 20256 55001
cycle: 0

Station Type Date Time Source
KFSM TAF 2019/04/22 18:22 UTC NOAA

TAF KFSM 221720Z 2218/2318 21010KT P6SM SCT250
FM230100 VRB03KT P6SM BKN035 PROB30 2314/2318 4SM -TSRA BKN025CB

Example: see airport list